Time;durP1;ratioP1;P1;durP2;ratioP2;P2;SDS_P1;SDS_P2;PMS_P1;PMS_P2;Temp;Humidity;BMP_temperature;BMP_pressure;BME280_temperature;BME280_humidity;BME280_pressure;Samples;Min_cycle;Max_cycle;Signal;HPM_P1;HPM_P2
2021/12/27 00:00:47;;;;;;;356.10;183.80;;;;;;;-11.56;72.93;100517.75;108403;1286;23724;-80
2021/12/27 00:03:18;;;;;;;353.10;182.50;;;;;;;-11.55;73.05;100517.40;108401;1280;22947;-80
2021/12/27 00:05:47;;;;;;;357.50;183.50;;;;;;;-11.52;73.06;100520.73;108720;1281;23685;-80
2021/12/27 00:08:19;;;;;;;367.10;181.60;;;;;;;-11.48;73.03;100526.11;109040;1275;21997;-80
2021/12/27 00:10:51;;;;;;;350.90;184.20;;;;;;;-11.46;72.95;100520.65;109160;1274;22016;-79
2021/12/27 00:13:20;;;;;;;368.90;189.30;;;;;;;-11.46;72.83;100524.05;108578;1281;23595;-79
2021/12/27 00:15:50;;;;;;;365.70;185.70;;;;;;;-11.49;72.65;100527.33;108457;1284;22953;-79
2021/12/27 00:18:22;;;;;;;385.70;188.70;;;;;;;-11.54;72.58;100527.92;108092;1288;21987;-79
2021/12/27 00:20:51;;;;;;;352.40;180.10;;;;;;;-11.59;72.49;100521.70;107862;1293;22010;-79
2021/12/27 00:23:21;;;;;;;367.10;186.40;;;;;;;-11.61;72.65;100515.09;107954;1293;23002;-80
2021/12/27 00:25:51;;;;;;;329.30;171.90;;;;;;;-11.58;72.74;100511.16;107814;1292;22060;-79
2021/12/27 00:28:21;;;;;;;334.90;166.20;;;;;;;-11.55;72.88;100504.67;108079;1292;22070;-79
2021/12/27 00:30:52;;;;;;;288.40;148.50;;;;;;;-11.55;72.93;100504.65;107845;1288;22097;-79
2021/12/27 00:33:25;;;;;;;279.60;139.20;;;;;;;-11.57;72.76;100502.30;108144;1284;21996;-79
2021/12/27 00:35:55;;;;;;;272.50;138.20;;;;;;;-11.55;72.94;100499.05;108309;1278;276755;-79
2021/12/27 00:38:27;;;;;;;250.00;130.90;;;;;;;-11.52;73.06;100502.06;108733;1275;21999;-80
2021/12/27 00:41:01;;;;;;;243.80;122.70;;;;;;;-11.47;73.11;100502.98;109036;1275;21979;-79
2021/12/27 00:43:31;;;;;;;231.30;120.00;;;;;;;-11.41;73.36;100502.73;109153;1274;23039;-81
2021/12/27 00:46:01;;;;;;;242.20;116.10;;;;;;;-11.35;73.28;100506.19;109097;1274;22005;-79
2021/12/27 00:48:30;;;;;;;236.90;115.90;;;;;;;-11.29;73.34;100507.29;109244;1274;23099;-80
2021/12/27 00:51:03;;;;;;;235.20;119.70;;;;;;;-11.26;73.39;100506.38;108936;1280;22209;-79
2021/12/27 00:53:35;;;;;;;222.40;114.50;;;;;;;-11.22;73.35;100508.52;108669;1281;22001;-81
2021/12/27 00:56:05;;;;;;;228.60;114.40;;;;;;;-11.22;73.09;100508.85;108723;1281;23587;-80
2021/12/27 00:58:35;;;;;;;221.20;113.00;;;;;;;-11.25;72.99;100513.33;108532;1281;22783;-80
2021/12/27 01:01:05;;;;;;;223.50;114.80;;;;;;;-11.31;72.81;100512.40;108653;1281;21992;-81
2021/12/27 01:03:35;;;;;;;224.60;117.10;;;;;;;-11.39;72.69;100511.69;108468;1281;21992;-79
2021/12/27 01:06:05;;;;;;;215.10;112.20;;;;;;;-11.46;72.53;100511.98;108562;1280;22484;-81
2021/12/27 01:08:36;;;;;;;210.00;107.90;;;;;;;-11.52;72.56;100509.53;108751;1275;22062;-79
2021/12/27 01:14:09;;;;;;;193.50;102.40;;;;;;;-11.60;72.81;100505.40;108556;1281;22746;-79
2021/12/27 01:16:42;;;;;;;205.50;106.10;;;;;;;-11.59;72.78;100505.23;108759;1281;23713;-79
2021/12/27 01:19:14;;;;;;;208.00;104.40;;;;;;;-11.57;73.01;100503.33;108728;1281;22011;-80
2021/12/27 01:21:47;;;;;;;186.70;99.10;;;;;;;-11.51;73.15;100501.52;108599;1286;24387;-80
2021/12/27 01:24:16;;;;;;;186.10;100.30;;;;;;;-11.45;73.30;100496.34;108438;1286;22073;-80
2021/12/27 01:26:49;;;;;;;177.60;96.10;;;;;;;-11.40;73.30;100485.20;108488;1286;23746;-80
2021/12/27 01:29:19;;;;;;;180.20;96.30;;;;;;;-11.34;73.34;100485.77;108531;1285;21995;-80
2021/12/27 01:31:48;;;;;;;171.20;97.80;;;;;;;-11.28;73.28;100487.04;108428;1281;22450;-79
2021/12/27 01:34:18;;;;;;;184.30;97.80;;;;;;;-11.27;73.29;100481.74;108383;1284;23714;-79
2021/12/27 01:36:48;;;;;;;182.00;97.60;;;;;;;-11.23;73.32;100484.91;108218;1287;22028;-77
2021/12/27 01:39:17;;;;;;;174.90;93.40;;;;;;;-11.21;73.21;100482.65;107708;1292;21993;-76
2021/12/27 01:41:47;;;;;;;169.30;91.80;;;;;;;-11.23;73.08;100483.21;107512;1297;24440;-76
2021/12/27 01:44:16;;;;;;;168.70;91.50;;;;;;;-11.25;73.14;100479.66;107331;1298;24341;-77
2021/12/27 01:46:46;;;;;;;165.80;90.60;;;;;;;-11.22;73.26;100481.65;107422;1294;22058;-77
2021/12/27 01:49:16;;;;;;;152.60;86.10;;;;;;;-11.17;73.29;100480.02;107903;1292;22061;-77
2021/12/27 01:51:47;;;;;;;156.10;89.40;;;;;;;-11.14;73.35;100479.96;107778;1286;22876;-77
2021/12/27 01:54:16;;;;;;;155.90;82.40;;;;;;;-11.09;73.36;100484.64;107727;1292;22222;-77
2021/12/27 01:56:51;;;;;;;156.00;81.50;;;;;;;-11.05;73.24;100489.52;107665;1292;23624;-77
2021/12/27 01:59:23;;;;;;;147.40;82.70;;;;;;;-11.03;73.29;100490.48;107655;1288;22024;-77
2021/12/27 02:01:54;;;;;;;153.20;86.40;;;;;;;-11.02;73.22;100495.73;107731;1292;22311;-77
2021/12/27 02:04:23;;;;;;;164.70;87.80;;;;;;;-11.07;72.92;100495.30;107732;1289;21993;-80
2021/12/27 02:06:54;;;;;;;146.70;83.40;;;;;;;-11.15;72.69;100494.29;108152;1292;22061;-80
2021/12/27 02:09:33;;;;;;;166.00;89.60;;;;;;;-11.20;72.75;100494.36;107735;1294;22014;-79
2021/12/27 02:12:10;;;;;;;178.30;95.10;;;;;;;-11.21;72.82;100493.70;107755;1292;24473;-80
2021/12/27 02:14:39;;;;;;;172.60;94.20;;;;;;;-11.22;72.96;100490.31;108020;1292;23618;-81
2021/12/27 02:17:09;;;;;;;171.80;91.40;;;;;;;-11.24;72.75;100485.27;108052;1292;22132;-78
2021/12/27 02:19:38;;;;;;;177.60;92.70;;;;;;;-11.28;72.68;100491.29;108172;1281;22087;-79
2021/12/27 02:22:08;;;;;;;173.70;93.20;;;;;;;-11.32;72.72;100485.41;108741;1281;22004;-79
2021/12/27 02:24:41;;;;;;;179.80;94.30;;;;;;;-11.36;72.62;100486.16;108650;1275;22311;-79
2021/12/27 02:27:16;;;;;;;171.40;92.50;;;;;;;-11.39;72.58;100483.48;109145;1275;22018;-79
2021/12/27 02:29:46;;;;;;;156.70;89.30;;;;;;;-11.42;72.66;100484.37;109250;1275;22032;-80
2021/12/27 02:32:22;;;;;;;150.10;82.50;;;;;;;-11.44;72.68;100482.20;108690;1281;22690;-80
2021/12/27 02:34:54;;;;;;;153.70;86.90;;;;;;;-11.43;72.84;100477.42;108686;1281;21989;-79
2021/12/27 02:37:24;;;;;;;155.10;83.20;;;;;;;-11.42;72.86;100476.73;108887;1280;23570;-79
2021/12/27 02:39:54;;;;;;;149.50;80.10;;;;;;;-11.40;72.91;100473.13;108649;1281;22100;-80
2021/12/27 02:42:26;;;;;;;147.20;76.70;;;;;;;-11.38;73.00;100468.33;108708;1281;22223;-79
2021/12/27 02:44:59;;;;;;;142.60;80.70;;;;;;;-11.40;72.93;100466.15;108534;1281;22823;-78
2021/12/27 02:47:29;;;;;;;148.60;82.00;;;;;;;-11.39;72.93;100454.41;108434;1281;22294;-78
2021/12/27 02:49:58;;;;;;;158.80;81.90;;;;;;;-11.39;72.95;100449.82;108365;1278;23001;-78
2021/12/27 02:52:28;;;;;;;152.50;79.20;;;;;;;-11.40;73.04;100447.28;108675;1278;23149;-77
2021/12/27 02:54:57;;;;;;;166.90;86.20;;;;;;;-11.44;72.85;100445.66;108766;1278;21976;-78
2021/12/27 02:57:27;;;;;;;152.90;83.00;;;;;;;-11.45;72.94;100448.22;108760;1278;22040;-77
2021/12/27 02:59:57;;;;;;;155.70;81.90;;;;;;;-11.44;72.97;100438.19;108425;1285;22008;-78
2021/12/27 03:02:27;;;;;;;155.00;81.50;;;;;;;-11.45;72.94;100435.98;108400;1287;23611;-80
2021/12/27 03:04:56;;;;;;;145.30;82.00;;;;;;;-11.49;72.95;100429.09;108242;1285;23540;-78
2021/12/27 03:07:26;;;;;;;140.80;80.40;;;;;;;-11.50;72.93;100423.85;108237;1285;23650;-78
2021/12/27 03:09:58;;;;;;;154.00;82.00;;;;;;;-11.53;72.86;100425.77;107949;1291;22349;-79
2021/12/27 03:12:29;;;;;;;146.80;82.10;;;;;;;-11.56;72.84;100426.68;107936;1291;23589;-78
2021/12/27 03:15:02;;;;;;;158.80;81.90;;;;;;;-11.56;73.00;100423.29;108160;1286;21999;-79
2021/12/27 03:17:36;;;;;;;152.80;86.00;;;;;;;-11.58;72.87;100421.59;108241;1281;21991;-79
2021/12/27 03:20:08;;;;;;;157.80;82.40;;;;;;;-11.58;72.91;100420.92;108441;1280;24320;-78
2021/12/27 03:22:40;;;;;;;154.00;84.60;;;;;;;-11.56;72.94;100416.48;108477;1281;22467;-79
2021/12/27 03:25:23;;;;;;;161.30;87.50;;;;;;;-11.56;72.88;100417.50;108508;1281;23656;-78
2021/12/27 03:27:53;;;;;;;177.30;92.40;;;;;;;-11.57;72.92;100417.67;108667;1274;22006;-78
2021/12/27 03:30:25;;;;;;;176.60;92.90;;;;;;;-11.57;72.95;100415.82;108886;1275;23029;-80
2021/12/27 03:32:55;;;;;;;158.60;86.40;;;;;;;-11.59;72.79;100414.33;109056;1274;23026;-79
2021/12/27 03:35:27;;;;;;;162.70;86.10;;;;;;;-11.59;72.84;100411.27;108517;1281;24370;-78
2021/12/27 03:38:00;;;;;;;157.10;87.30;;;;;;;-11.62;72.71;100409.44;108215;1286;23070;-79
2021/12/27 03:40:32;;;;;;;169.90;89.90;;;;;;;-11.64;72.78;100408.64;108155;1288;21995;-77
2021/12/27 03:43:03;;;;;;;165.50;89.40;;;;;;;-11.67;72.70;100408.33;108197;1286;22024;-78
2021/12/27 03:45:39;;;;;;;175.10;89.40;;;;;;;-11.71;72.60;100406.72;108329;1286;23685;-77
2021/12/27 03:48:10;;;;;;;187.00;93.60;;;;;;;-11.74;72.68;100407.27;108393;1287;23695;-77
2021/12/27 03:50:40;;;;;;;170.30;89.50;;;;;;;-11.79;72.64;100406.52;107890;1292;22054;-80
2021/12/27 03:53:10;;;;;;;173.80;93.50;;;;;;;-11.84;72.57;100411.54;107595;1294;22005;-80
2021/12/27 03:55:39;;;;;;;186.30;97.10;;;;;;;-11.87;72.75;100411.95;107773;1285;22001;-79
2021/12/27 03:58:12;;;;;;;174.50;95.40;;;;;;;-11.90;72.82;100414.02;107750;1290;22246;-79
2021/12/27 04:03:24;;;;;;;173.80;89.80;;;;;;;-11.91;72.66;100409.45;107833;1290;22845;-78
2021/12/27 04:05:54;;;;;;;146.80;80.70;;;;;;;-11.93;72.87;100411.18;108101;1290;22945;-80
2021/12/27 04:08:24;;;;;;;152.00;83.80;;;;;;;-11.91;72.99;100414.21;107730;1291;23825;-78
2021/12/27 04:10:55;;;;;;;157.00;84.50;;;;;;;-11.87;72.99;100416.35;107552;1291;22052;-78
2021/12/27 04:13:27;;;;;;;177.00;89.80;;;;;;;-11.85;73.02;100416.84;107804;1291;23863;-78
2021/12/27 04:15:59;;;;;;;149.40;81.20;;;;;;;-11.84;72.93;100416.98;108223;1286;23614;-78
2021/12/27 04:18:29;;;;;;;151.60;80.00;;;;;;;-11.84;72.97;100420.02;108120;1286;22463;-77
2021/12/27 04:20:59;;;;;;;158.80;81.10;;;;;;;-11.80;72.98;100420.80;108127;1286;21987;-78
2021/12/27 04:23:29;;;;;;;154.90;80.70;;;;;;;-11.78;72.89;100418.71;108133;1286;23112;-76
2021/12/27 04:25:58;;;;;;;143.30;75.30;;;;;;;-11.77;72.85;100414.79;108054;1281;22002;-78
2021/12/27 04:28:29;;;;;;;136.20;77.10;;;;;;;-11.77;72.90;100417.52;108403;1281;22008;-77
2021/12/27 04:31:00;;;;;;;145.50;77.70;;;;;;;-11.76;72.87;100420.05;108495;1281;22052;-78
2021/12/27 04:33:30;;;;;;;147.20;77.70;;;;;;;-11.78;72.83;100413.63;108710;1280;22100;-78
2021/12/27 04:35:59;;;;;;;145.70;80.40;;;;;;;-11.78;72.73;100419.06;108485;1281;22038;-78
2021/12/27 04:38:29;;;;;;;138.00;77.30;;;;;;;-11.77;72.79;100419.90;108382;1282;24297;-78
2021/12/27 04:41:01;;;;;;;146.10;74.60;;;;;;;-11.76;72.82;100414.09;108483;1281;22028;-77
2021/12/27 04:43:31;;;;;;;154.70;79.30;;;;;;;-11.76;72.78;100417.51;108102;1287;23778;-77
2021/12/27 04:46:02;;;;;;;147.30;80.70;;;;;;;-11.76;72.81;100420.39;108155;1281;22316;-77
2021/12/27 04:48:33;;;;;;;150.00;77.10;;;;;;;-11.75;72.79;100422.08;108144;1287;23025;-79
2021/12/27 04:51:03;;;;;;;143.20;74.00;;;;;;;-11.72;72.88;100424.58;107752;1292;22792;-78
2021/12/27 04:53:33;;;;;;;152.10;78.30;;;;;;;-11.73;72.71;100427.48;107737;1292;23799;-78
2021/12/27 04:56:11;;;;;;;167.70;86.10;;;;;;;-11.75;72.63;100426.33;107707;1292;22061;-78
2021/12/27 04:58:43;;;;;;;178.90;86.80;;;;;;;-11.75;72.81;100429.89;107678;1292;23047;-79
2021/12/27 05:01:29;;;;;;;157.90;82.10;;;;;;;-11.74;72.70;100427.48;107732;1287;22017;-78
2021/12/27 05:04:04;;;;;;;156.60;80.30;;;;;;;-11.71;72.94;100424.55;108347;1286;22091;-80
2021/12/27 05:06:37;;;;;;;152.40;82.90;;;;;;;-11.70;72.86;100419.27;108205;1287;23057;-78
2021/12/27 05:09:06;;;;;;;181.70;90.30;;;;;;;-11.68;72.90;100417.21;107878;1286;21983;-79
2021/12/27 05:11:35;;;;;;;164.30;82.90;;;;;;;-11.68;72.88;100414.80;108142;1286;22007;-79
2021/12/27 05:14:05;;;;;;;141.70;77.30;;;;;;;-11.65;72.94;100418.16;108621;1281;22095;-78
2021/12/27 05:16:35;;;;;;;150.80;80.30;;;;;;;-11.62;73.03;100417.59;108585;1280;22033;-79
2021/12/27 05:19:07;;;;;;;153.70;77.80;;;;;;;-11.60;72.93;100416.88;108542;1281;22210;-78
2021/12/27 05:21:37;;;;;;;145.60;76.80;;;;;;;-11.60;72.94;100414.84;108764;1281;21997;-78
2021/12/27 05:24:07;;;;;;;143.90;75.20;;;;;;;-11.60;72.83;100413.33;108675;1275;23775;-78
2021/12/27 05:26:37;;;;;;;137.80;73.10;;;;;;;-11.61;72.75;100405.52;108818;1275;23669;-78
2021/12/27 05:29:06;;;;;;;139.60;74.50;;;;;;;-11.65;72.68;100404.39;109028;1275;23675;-78
2021/12/27 05:31:37;;;;;;;136.20;74.20;;;;;;;-11.67;72.69;100400.70;108944;1275;22095;-78
2021/12/27 05:34:11;;;;;;;136.30;74.60;;;;;;;-11.72;72.56;100392.95;108841;1275;22018;-78
2021/12/27 05:36:42;;;;;;;142.30;77.10;;;;;;;-11.75;72.53;100390.30;108935;1275;23033;-78
2021/12/27 05:39:16;;;;;;;138.10;74.90;;;;;;;-11.79;72.49;100388.33;108914;1275;22028;-78
2021/12/27 05:41:47;;;;;;;131.10;73.00;;;;;;;-11.80;72.48;100387.68;108979;1275;24303;-78
2021/12/27 05:44:18;;;;;;;133.80;71.80;;;;;;;-11.82;72.48;100383.66;108511;1281;22022;-77
2021/12/27 05:46:58;;;;;;;133.20;71.10;;;;;;;-11.84;72.56;100383.84;108511;1281;22116;-77
2021/12/27 05:49:29;;;;;;;128.00;69.60;;;;;;;-11.84;72.54;100383.52;108152;1286;23843;-78
2021/12/27 05:52:01;;;;;;;136.40;75.20;;;;;;;-11.88;72.44;100383.42;108093;1288;21989;-76
2021/12/27 05:54:30;;;;;;;141.50;75.40;;;;;;;-11.91;72.38;100390.09;108410;1287;21999;-77
2021/12/27 05:57:01;;;;;;;149.50;76.20;;;;;;;-11.92;72.42;100398.09;107781;1294;22003;-79
2021/12/27 05:59:32;;;;;;;141.20;78.10;;;;;;;-11.95;72.49;100396.29;107646;1292;23121;-78
2021/12/27 06:02:02;;;;;;;147.90;77.00;;;;;;;-11.97;72.40;100398.86;107848;1286;22245;-76
2021/12/27 06:04:35;;;;;;;135.90;75.40;;;;;;;-11.99;72.31;100398.20;108300;1286;22147;-76
2021/12/27 06:07:05;;;;;;;134.70;75.30;;;;;;;-11.99;72.43;100401.27;108176;1281;23005;-76
2021/12/27 06:09:34;;;;;;;152.60;77.50;;;;;;;-12.00;72.19;100397.90;108152;1288;21995;-75
2021/12/27 06:12:05;;;;;;;145.50;73.50;;;;;;;-12.02;72.27;100398.77;108181;1286;23085;-76
2021/12/27 06:14:36;;;;;;;138.00;75.80;;;;;;;-12.04;72.27;100401.52;108148;1281;24084;-77
2021/12/27 06:17:06;;;;;;;145.70;75.30;;;;;;;-12.05;72.21;100398.16;108831;1276;22975;-77
2021/12/27 06:19:36;;;;;;;141.90;75.20;;;;;;;-12.06;72.31;100396.29;108539;1281;22490;-77
2021/12/27 06:22:06;;;;;;;141.80;78.90;;;;;;;-12.06;72.35;100395.27;108640;1278;23577;-77
2021/12/27 06:24:35;;;;;;;149.20;80.30;;;;;;;-12.07;72.23;100397.84;108704;1279;21988;-78
2021/12/27 06:27:05;;;;;;;138.80;75.50;;;;;;;-12.08;72.30;100399.55;108739;1275;23172;-77
2021/12/27 06:29:34;;;;;;;138.60;75.40;;;;;;;-12.08;72.24;100403.97;109260;1274;22096;-77
2021/12/27 06:32:04;;;;;;;147.90;76.80;;;;;;;-12.08;72.35;100406.34;109090;1275;22995;-77
2021/12/27 06:34:33;;;;;;;135.10;72.80;;;;;;;-12.07;72.46;100404.46;108806;1281;22301;-76
2021/12/27 06:37:03;;;;;;;133.20;71.30;;;;;;;-12.06;72.46;100407.15;108801;1279;23047;-79
2021/12/27 06:39:33;;;;;;;131.80;69.80;;;;;;;-12.03;72.64;100407.45;108613;1281;23627;-76
2021/12/27 06:42:05;;;;;;;122.90;66.80;;;;;;;-12.01;72.62;100409.10;108779;1281;22439;-76
2021/12/27 06:44:37;;;;;;;136.00;72.70;;;;;;;-11.97;72.69;100405.65;108591;1281;24291;-77
2021/12/27 06:47:06;;;;;;;132.30;69.10;;;;;;;-11.91;72.75;100396.55;108554;1280;24376;-76
2021/12/27 06:49:37;;;;;;;127.60;73.70;;;;;;;-11.87;72.81;100394.44;108697;1281;22295;-77
2021/12/27 06:52:06;;;;;;;147.60;76.90;;;;;;;-11.83;72.78;100396.05;108678;1275;23681;-78
2021/12/27 06:54:39;;;;;;;135.00;72.80;;;;;;;-11.79;72.95;100397.35;108991;1275;21949;-79
2021/12/27 06:57:10;;;;;;;;;;;;;;;-11.74;72.97;100400.13;109006;1275;21945;-75
2021/12/27 06:59:39;;;;;;;147.20;75.40;;;;;;;-11.74;73.05;100397.91;108568;1281;22955;-76
2021/12/27 07:02:09;;;;;;;145.00;79.50;;;;;;;-11.69;73.13;100397.69;108494;1276;23033;-77
2021/12/27 07:04:40;;;;;;;152.50;83.60;;;;;;;-11.64;73.18;100401.48;108445;1281;22154;-75
2021/12/27 07:07:11;;;;;;;163.40;84.10;;;;;;;-11.56;73.19;100403.91;108502;1281;22126;-80
2021/12/27 07:09:41;;;;;;;191.60;92.30;;;;;;;-11.51;73.09;100399.55;108637;1280;22013;-81
2021/12/27 07:12:15;;;;;;;209.60;101.60;;;;;;;-11.44;73.10;100396.55;108632;1281;23601;-79
2021/12/27 07:14:47;;;;;;;189.60;95.20;;;;;;;-11.40;73.20;100389.33;108425;1285;23101;-80
2021/12/27 07:17:17;;;;;;;176.90;88.70;;;;;;;-11.34;73.05;100384.30;108105;1287;21994;-80
2021/12/27 07:19:49;;;;;;;180.60;94.50;;;;;;;-11.30;73.14;100383.20;108611;1285;23632;-82
2021/12/27 07:22:19;;;;;;;188.10;95.70;;;;;;;-11.24;73.27;100386.82;108501;1285;22038;-83
2021/12/27 07:24:53;;;;;;;173.20;92.90;;;;;;;-11.16;73.29;100391.42;108276;1289;22045;-81
2021/12/27 07:27:27;;;;;;;163.60;86.40;;;;;;;-11.09;73.33;100392.47;108149;1289;23646;-80
2021/12/27 07:30:20;;;;;;;150.70;83.70;;;;;;;-11.00;73.27;100401.98;108445;1289;22109;-79
2021/12/27 07:32:59;;;;;;;;;;;;;;;-10.93;73.35;100399.63;108240;1289;22435;-81
2021/12/27 07:35:29;;;;;;;161.40;84.80;;;;;;;-10.92;73.24;100398.41;108574;1284;21982;-79
2021/12/27 07:38:04;;;;;;;207.90;105.20;;;;;;;-10.89;73.18;100394.11;108365;1288;22316;-81
2021/12/27 07:40:38;;;;;;;182.00;93.40;;;;;;;-10.85;73.23;100394.70;108329;1284;22460;-79
2021/12/27 07:43:11;;;;;;;169.20;89.90;;;;;;;-10.81;73.31;100395.81;108732;1279;22049;-80
2021/12/27 07:45:41;;;;;;;150.80;83.40;;;;;;;-10.78;73.24;100391.83;108967;1278;21982;-80
2021/12/27 07:48:16;;;;;;;148.20;81.00;;;;;;;-10.74;73.21;100390.56;108484;1287;22014;-81
2021/12/27 07:50:46;;;;;;;149.00;82.70;;;;;;;-10.70;73.28;100394.73;108512;1287;22026;-79
2021/12/27 07:53:17;;;;;;;145.00;79.90;;;;;;;-10.64;73.25;100395.97;108016;1291;22014;-80
2021/12/27 07:55:49;;;;;;;132.40;74.30;;;;;;;-10.56;73.45;100394.27;108100;1286;21993;-80
2021/12/27 07:58:19;;;;;;;126.30;71.60;;;;;;;-10.49;73.48;100394.94;108554;1287;23141;-80
2021/12/27 08:00:50;;;;;;;152.50;82.20;;;;;;;-10.45;73.38;100393.33;108562;1286;22010;-80
2021/12/27 08:03:27;;;;;;;143.60;77.70;;;;;;;-10.39;73.43;100389.29;108559;1287;23582;-81
2021/12/27 08:06:03;;;;;;;155.80;80.90;;;;;;;-10.32;73.49;100387.75;108519;1287;23659;-80
2021/12/27 08:08:49;;;;;;;126.70;69.30;;;;;;;-10.27;73.51;100383.88;108611;1286;22005;-82
2021/12/27 08:11:24;;;;;;;142.80;73.60;;;;;;;-10.23;73.54;100379.17;108659;1289;21992;-81
2021/12/27 08:13:55;;;;;;;151.70;79.60;;;;;;;-10.16;73.64;100381.91;108707;1282;22224;-80
2021/12/27 08:16:27;;;;;;;153.00;80.30;;;;;;;-10.09;73.72;100383.27;108868;1281;21951;-81
2021/12/27 08:18:59;;;;;;;154.60;83.60;;;;;;;-10.01;73.74;100383.05;108689;1288;21941;-81
2021/12/27 08:21:33;;;;;;;129.30;71.00;;;;;;;-9.95;73.77;100374.23;108636;1288;22060;-83
2021/12/27 08:24:09;;;;;;;114.70;64.10;;;;;;;-9.87;73.68;100376.43;108028;1294;23009;-83
2021/12/27 08:26:43;;;;;;;120.30;69.50;;;;;;;-9.83;73.70;100380.91;107982;1292;22849;-82
2021/12/27 08:29:18;;;;;;;109.90;63.80;;;;;;;-9.77;73.90;100375.83;107974;1292;22022;-81
2021/12/27 08:31:51;;;;;;;111.20;64.50;;;;;;;-9.71;73.88;100373.63;108109;1292;23723;-81
2021/12/27 08:34:21;;;;;;;112.20;62.20;;;;;;;-9.64;74.01;100374.45;107507;1298;22005;-81
2021/12/27 08:36:53;;;;;;;100.60;57.20;;;;;;;-9.55;74.06;100374.23;107825;1291;317527;-81
2021/12/27 08:39:34;;;;;;;102.30;58.20;;;;;;;-9.46;74.17;100371.08;108143;1291;23119;-81
2021/12/27 08:42:10;;;;;;;97.90;57.90;;;;;;;-9.38;74.12;100367.98;107770;1291;22050;-79
2021/12/27 08:44:41;;;;;;;103.70;55.70;;;;;;;-9.31;74.21;100368.98;108499;1287;23039;-81
2021/12/27 08:47:13;;;;;;;102.40;56.30;;;;;;;-9.23;74.19;100363.82;108497;1287;22757;-80
2021/12/27 08:49:47;;;;;;;108.30;60.60;;;;;;;-9.15;74.28;100365.98;108688;1285;22008;-83
2021/12/27 08:52:47;;;;;;;114.10;60.70;;;;;;;-9.12;73.94;100361.46;108508;1284;22019;-80
2021/12/27 08:55:19;;;;;;;93.60;52.40;;;;;;;-9.08;73.90;100353.52;108834;1284;22800;-81
2021/12/27 08:57:49;;;;;;;106.70;59.60;;;;;;;-9.06;73.92;100352.94;108541;1284;22017;-80
2021/12/27 09:00:20;;;;;;;107.50;63.30;;;;;;;-9.05;73.81;100351.70;108668;1281;24382;-80
2021/12/27 09:02:49;;;;;;;107.60;65.70;;;;;;;-8.99;73.96;100349.86;108608;1284;23694;-80
2021/12/27 09:05:20;;;;;;;97.00;58.40;;;;;;;-8.93;74.05;100350.34;108794;1284;23720;-80
2021/12/27 09:08:03;;;;;;;;;;;;;;;-8.84;74.11;100347.67;108793;1282;22722;-79
2021/12/27 09:10:36;;;;;;;94.90;51.70;;;;;;;-8.83;74.18;100343.04;108744;1278;23685;-81
2021/12/27 09:13:12;;;;;;;87.30;51.10;;;;;;;-8.80;74.07;100343.98;108748;1284;22803;-80
2021/12/27 09:16:05;;;;;;;93.70;55.10;;;;;;;-8.75;73.91;100346.59;108658;1284;21996;-81
2021/12/27 09:18:36;;;;;;;100.50;55.40;;;;;;;-8.74;73.91;100340.05;108539;1283;23246;-81
2021/12/27 09:21:09;;;;;;;97.10;56.60;;;;;;;-8.70;73.95;100346.25;108729;1281;22043;-80
2021/12/27 09:23:41;;;;;;;;;;;;;;;-8.67;73.85;100335.56;108661;1285;21965;-83
2021/12/27 09:26:12;;;;;;;97.60;52.80;;;;;;;-8.69;73.77;100334.93;108722;1282;22728;-80
2021/12/27 09:28:44;;;;;;;104.20;56.70;;;;;;;-8.65;74.03;100334.98;108613;1285;21998;-80
2021/12/27 09:31:13;;;;;;;106.80;60.10;;;;;;;-8.57;74.12;100338.16;108141;1289;22025;-80
2021/12/27 09:33:43;;;;;;;110.90;57.30;;;;;;;-8.48;74.04;100337.02;108440;1291;21959;-80
2021/12/27 09:36:21;;;;;;;97.60;56.90;;;;;;;-8.37;74.23;100332.73;108240;1290;22307;-81
2021/12/27 09:38:51;;;;;;;97.50;55.60;;;;;;;-8.20;74.48;100330.48;108503;1286;22055;-81
2021/12/27 09:41:25;;;;;;;103.20;56.90;;;;;;;-8.04;74.54;100327.37;108241;1286;22012;-81
2021/12/27 09:43:57;;;;;;;96.00;54.70;;;;;;;-7.91;74.34;100323.53;108480;1288;22045;-81
2021/12/27 09:46:32;;;;;;;97.00;56.50;;;;;;;-7.83;74.23;100317.76;108158;1291;22021;-80
2021/12/27 09:49:17;;;;;;;129.40;67.30;;;;;;;-7.69;74.23;100316.95;108506;1287;22509;-80
2021/12/27 09:51:47;;;;;;;104.30;61.70;;;;;;;-7.51;74.27;100309.33;108389;1288;21978;-81
2021/12/27 09:54:18;;;;;;;96.80;58.30;;;;;;;-7.36;74.24;100307.75;108525;1286;23589;-79
2021/12/27 09:56:50;;;;;;;95.90;54.10;;;;;;;-7.25;73.89;100304.61;108388;1286;23456;-80
2021/12/27 09:59:22;;;;;;;85.90;46.50;;;;;;;-7.20;73.29;100299.46;108504;1286;22226;-81
2021/12/27 10:01:53;;;;;;;78.70;48.50;;;;;;;-7.22;73.01;100292.67;108357;1291;23848;-81
2021/12/27 10:04:32;;;;;;;74.30;45.00;;;;;;;-7.20;72.88;100290.39;108246;1288;22002;-81
2021/12/27 10:07:04;;;;;;;86.00;51.80;;;;;;;-7.14;72.98;100286.76;108771;1281;22016;-81
2021/12/27 10:09:37;;;;;;;86.20;55.40;;;;;;;-7.08;72.82;100285.48;108798;1282;23584;-82
2021/12/27 10:12:08;;;;;;;71.40;44.70;;;;;;;-7.05;72.56;100291.73;108802;1281;22014;-80
2021/12/27 10:14:39;;;;;;;80.60;47.60;;;;;;;-7.08;72.21;100285.65;108796;1282;23582;-80
2021/12/27 10:17:11;;;;;;;85.60;50.90;;;;;;;-7.08;72.07;100283.46;108832;1281;22219;-82
2021/12/27 10:19:40;;;;;;;87.00;51.70;;;;;;;-7.06;72.05;100283.38;108446;1288;22016;-81
2021/12/27 10:22:12;;;;;;;93.10;52.40;;;;;;;-7.02;72.16;100279.63;108365;1288;23866;-81
2021/12/27 10:24:42;;;;;;;86.80;53.00;;;;;;;-6.95;72.47;100272.15;108416;1288;23058;-80
2021/12/27 10:27:12;;;;;;;84.00;49.70;;;;;;;-6.82;72.52;100269.25;108587;1285;22456;-82
2021/12/27 10:29:44;;;;;;;82.60;46.90;;;;;;;-6.72;72.25;100268.35;108692;1284;22205;-80
2021/12/27 10:32:20;;;;;;;85.40;51.40;;;;;;;-6.68;71.85;100263.39;108119;1288;22005;-80
2021/12/27 10:34:52;;;;;;;92.10;54.70;;;;;;;-6.60;72.13;100255.54;108349;1288;22781;-80
2021/12/27 10:37:43;;;;;;;88.80;50.30;;;;;;;-6.44;72.30;100261.77;108506;1281;23055;-81
2021/12/27 10:40:13;;;;;;;86.40;51.20;;;;;;;-6.35;72.03;100256.44;108499;1281;21994;-79
2021/12/27 10:42:46;;;;;;;87.30;52.80;;;;;;;-6.25;71.83;100256.87;108698;1281;23624;-80
2021/12/27 10:45:22;;;;;;;65.80;43.70;;;;;;;-6.20;71.52;100254.25;108731;1281;21997;-81
2021/12/27 10:48:02;;;;;;;81.40;51.90;;;;;;;-6.18;71.29;100252.61;108267;1287;23128;-80
2021/12/27 10:50:34;;;;;;;88.50;49.90;;;;;;;-6.17;70.94;100245.04;108775;1281;23579;-80
2021/12/27 10:53:14;;;;;;;84.10;51.40;;;;;;;-6.11;71.00;100247.23;108718;1282;22062;-80
2021/12/27 10:55:48;;;;;;;88.70;54.70;;;;;;;-6.06;70.72;100245.63;108781;1281;21984;-80
2021/12/27 10:58:26;;;;;;;;;;;;;;;-6.00;70.64;100237.48;108779;1281;21999;-80
2021/12/27 11:01:12;;;;;;;87.70;47.20;;;;;;;-5.96;70.90;100235.09;108680;1281;22029;-80
2021/12/27 11:03:54;;;;;;;80.60;47.20;;;;;;;-5.87;70.85;100226.27;108811;1280;22747;-79
2021/12/27 11:06:29;;;;;;;82.40;46.40;;;;;;;-5.70;70.70;100231.87;108723;1280;24514;-79
2021/12/27 11:09:00;;;;;;;79.60;47.50;;;;;;;-5.53;70.58;100226.65;108398;1287;23052;-82
2021/12/27 11:11:31;;;;;;;;;;;;;;;-5.38;70.50;100224.39;108555;1287;22127;-79
2021/12/27 11:14:01;;;;;;;80.70;48.40;;;;;;;-5.29;70.30;100218.14;108828;1281;23725;-80
2021/12/27 11:16:31;;;;;;;83.20;50.90;;;;;;;-5.13;70.34;100224.80;108126;1286;22006;-80